GCLPGMMX

Guest
Details From GCLP - Gran Canaria
To GMMX - MENARA
Flight Number -
Tags generated
Created
Modified
Stats Distance 450 nm / 834 km
Max Altitude 35,000 ft / 10,668 m
Waypoints 5
Social Downloads 1
Likes 0
Share VATSIM

Download

Looking for another format? Having issues loading an existing format? Contact us
Advertisement - Login to hide

Notes

Basic altitude profile: - Ascent Rate: 2500ft/min - Ascent Speed: 250kts - Cruise Altitude: 35000ft - Cruise Speed: 420kts - Descent Rate: 1500ft/min - Descent Speed: 250kts Options: - Use NATs: yes - Use PACOTS: yes - Use low airways: yes - Use high airways: yes

Route

GCLP FTV UN869 RUSIK UG850S ADM GMMX

ID Type Via Altitude Latitude Longitude Leg Dist Tot Dist Heading (true) Name
O GCLP APT - 0 ft / 0 m 27.93154˚ -15.38559˚ - 0 nm - Gran Canaria
FTV VOR - 29,600 ft / 9,022 m 28.43078˚ -13.86450˚ 85 nm 85 nm 69° / 70° FUERTEVENTURA VOR-DME
RUSIK FIX UN869 (AWY-HI) 35,000 ft / 10,668 m 28.90611˚ -12.81639˚ 62 nm 148 nm 62° / 63° -
ADM VOR UG850S (AWY-HI) 29,500 ft / 8,992 m 30.32194˚ -9.38333˚ 198 nm 346 nm 64° / 65° AGADIR VOR-DME
O GMMX APT - 0 ft / 0 m 31.60692˚ -8.03627˚ 103 nm 450 nm 42° / 42° MENARA

Altitude Profile

Advertisement - Login to hide

Weather


0- 5 10 15 20 25 30 35+ Temperature / ° C

Clouds and Precipitation
Forecast for 2018-05-27 06:00 UTC. Updated 2 hours ago

Ground ~20,000 ft ~40,000 ft Winds

GCLP

Details ICAO GCLP (LPA)
Name Gran Canaria
Region Canary Islands
Timezone Atlantic/Canary (UTC+1.0)
Stats Elevation 77 ft / 23 m (AMSL)
Location 27.931544° -15.385592°
Runways 2
Magnetic Variation 4.633° W

METAR

GCLP 270700Z 36010KT 9999 FEW030 18/12 Q1020 NOSIG

Decode

TAF

TAF GCLP 270200Z 2703/2803 36013KT 9999 FEW045 TX24/2714Z TN18/2705Z= TAF AMD KHRT 270243Z 2702/2807 VRB06KT 9999 SCT040 BKN100 QNH2980INS BECMG 2711/2712 03012G20KT 9999 SCT020 BKN060 QNH2972INS BECMG 2719/2720 04015G25KT 6000 -SHRA BKN025 OVC050 QNH2968INS BECMG 2800/2801 08015G25KT 6000 -SHRA BKN010 OVC030 QNH2963INS TX28/2718Z TN22/2710Z

Decode

Departure Runways

ID Width Length Bearing (true) Bearing (mag) Surface Threshold Offset Overrun Length
03L 148 ft / 45 m 10,203 ft / 3,110 m 21.33° 25.96° Asphalt 0 ft / 0 m 656 ft / 200 m
03R 148 ft / 45 m 10,200 ft / 3,109 m 21.32° 25.95° Asphalt 0 ft / 0 m 673 ft / 205 m
21L 148 ft / 45 m 10,200 ft / 3,109 m 201.33° 205.96° Asphalt 0 ft / 0 m 689 ft / 210 m
21R 148 ft / 45 m 10,203 ft / 3,110 m 201.33° 205.96° Asphalt 0 ft / 0 m 755 ft / 230 m

GMMX

Details ICAO GMMX (RAK)
Name MENARA
Region Morocco
Timezone Africa/Casablanca (UTC+0.0)
Stats Elevation 1,545 ft / 471 m (AMSL)
Location 31.606920° -8.036265°
Runways 1
Magnetic Variation 1.950° W

METAR

GMMX 270700Z 25003KT 9999 BKN026 15/13 Q1017 NOSIG

Decode

TAF

TAF GMMX 270500Z 2706/2812 30006KT 8000 BKN020 TEMPO 2714/2721 34014KT

Decode

Destination Runways

ID Width Length Bearing (true) Bearing (mag) Surface Threshold Offset Overrun Length
10 148 ft / 45 m 10,169 ft / 3,100 m 95.99° 97.94° Asphalt 918 ft / 280 m 0 ft / 0 m
28 148 ft / 45 m 10,169 ft / 3,100 m 276.00° 277.95° Asphalt 0 ft / 0 m 0 ft / 0 m

Approach Navaids

Runway Type Ident Frequency Range Bearing (true) Bearing (mag) Slope Elevation
10 Localiser MAR 109.70 MHz 18 nm / 33 km 96.03° 97.97° - 1,545 ft / 471 m (AMSL)
10 Glidescope MAR 109.70 MHz 10 nm / 19 km 96.00° 97.95° 3.00° 1,558 ft / 475 m (AMSL)

Popular Alternatives